Time;durP1;ratioP1;P1;durP2;ratioP2;P2;SDS_P1;SDS_P2;PMS_P1;PMS_P2;Temp;Humidity;BMP_temperature;BMP_pressure;BME280_temperature;BME280_humidity;BME280_pressure;Samples;Min_cycle;Max_cycle;Signal;HPM_P1;HPM_P2
2022/10/23 00:01:40;;;;;;;2.13;1.30;;;13.30;99.90;;;13.50;100.00;100920.88;5184035;28;20065;-73
2022/10/23 00:04:15;;;;;;;2.05;1.20;;;13.40;99.90;;;13.53;100.00;100919.22;5184709;28;20041;-73
2022/10/23 00:06:48;;;;;;;2.38;1.20;;;13.40;99.90;;;13.58;100.00;100922.84;5183957;28;20041;-72
2022/10/23 00:09:23;;;;;;;4.70;1.42;;;13.50;99.90;;;13.60;100.00;100919.34;5184434;28;20553;-72
2022/10/23 00:11:55;;;;;;;;;;;13.50;99.90;;;13.61;100.00;100914.16;5184417;28;20435;-72
2022/10/23 00:14:28;;;;;;;2.50;1.02;;;13.50;99.90;;;13.63;100.00;100906.31;5183428;28;19925;-72
2022/10/23 00:17:00;;;;;;;2.10;1.08;;;13.50;99.90;;;13.63;100.00;100907.25;5183450;28;20050;-73
2022/10/23 00:19:32;;;;;;;2.28;1.20;;;13.50;99.90;;;13.60;100.00;100907.16;5184414;28;20140;-72
2022/10/23 00:22:04;;;;;;;2.17;0.90;;;13.50;99.90;;;13.59;100.00;100910.63;5183714;28;20128;-72
2022/10/23 00:24:36;;;;;;;2.03;1.10;;;13.40;99.90;;;13.58;100.00;100911.47;5184213;28;20503;-73
2022/10/23 00:27:09;;;;;;;1.30;1.20;;;13.50;99.90;;;13.56;100.00;100908.81;5182834;28;20050;-72
2022/10/23 00:29:44;;;;;;;1.60;0.95;;;13.50;99.90;;;13.54;100.00;100912.22;5182633;28;20046;-73
2022/10/23 00:32:16;;;;;;;1.20;0.90;;;13.40;99.90;;;13.50;100.00;100907.78;5182782;28;20566;-73
2022/10/23 00:34:48;;;;;;;1.73;1.40;;;13.40;99.90;;;13.48;100.00;100912.97;5184138;28;20403;-73
2022/10/23 00:37:20;;;;;;;2.88;1.10;;;13.30;99.90;;;13.48;100.00;100919.94;5184074;28;20050;-73
2022/10/23 00:39:53;;;;;;;4.20;1.85;;;13.30;99.90;;;13.51;100.00;100923.53;5183584;28;20065;-73
2022/10/23 00:42:25;;;;;;;2.25;1.25;;;13.30;99.90;;;13.53;100.00;100920.94;5183875;28;20052;-73
2022/10/23 00:45:17;;;;;;;3.45;1.73;;;13.40;99.90;;;13.53;100.00;100918.31;5183820;28;20407;-72
2022/10/23 00:47:50;;;;;;;2.72;1.10;;;13.40;99.90;;;13.48;100.00;100912.97;5182634;28;20068;-73
2022/10/23 00:50:25;;;;;;;3.13;1.27;;;13.30;99.90;;;13.45;100.00;100907.66;5182178;28;20069;-73
2022/10/23 00:53:01;;;;;;;2.38;1.30;;;13.30;99.90;;;13.44;100.00;100910.25;5182558;28;20038;-72
2022/10/23 00:55:34;;;;;;;1.80;1.00;;;13.30;99.90;;;13.42;100.00;100901.44;5199076;28;20054;-73
2022/10/23 00:58:06;;;;;;;3.47;1.30;;;13.30;99.90;;;13.39;100.00;100891.81;5183907;28;20502;-73
2022/10/23 01:00:47;;;;;;;3.83;1.13;;;13.30;99.90;;;13.41;100.00;100899.69;5181732;28;20103;-73
2022/10/23 01:03:22;;;;;;;2.72;1.20;;;13.20;99.90;;;13.42;100.00;100896.22;5182511;28;20061;-73
2022/10/23 01:06:01;;;;;;;3.95;1.50;;;13.30;99.90;;;13.46;100.00;100887.59;5182141;28;20065;-73
2022/10/23 01:08:41;;;;;;;2.15;1.20;;;13.30;99.90;;;13.51;100.00;100891.22;5182221;28;20494;-72
2022/10/23 01:11:19;;;;;;;3.75;1.13;;;13.30;99.90;;;13.51;100.00;100892.09;5181872;28;20062;-73
2022/10/23 01:14:02;;;;;;;4.28;1.52;;;13.40;99.90;;;13.58;100.00;100901.00;5181738;28;20096;-73
2022/10/23 01:16:46;;;;;;;2.85;1.48;;;13.50;99.90;;;13.60;100.00;100906.25;5182148;28;20149;-73
2022/10/23 01:19:27;;;;;;;4.75;1.67;;;13.50;99.90;;;13.60;100.00;100901.91;5185531;28;20054;-73
2022/10/23 01:22:13;;;;;;;2.20;1.30;;;13.50;99.90;;;13.61;100.00;100908.03;5187185;28;20121;-73
2022/10/23 01:24:56;;;;;;;4.22;1.25;;;13.50;99.90;;;13.60;100.00;100906.25;5186456;28;20041;-73
2022/10/23 01:27:36;;;;;;;5.25;1.30;;;13.40;99.90;;;13.60;100.00;100901.91;5186269;28;20046;-72
2022/10/23 01:30:12;;;;;;;1.55;1.20;;;13.50;99.90;;;13.61;100.00;100893.19;5185905;28;20212;-73
2022/10/23 01:32:52;;;;;;;2.30;1.20;;;13.50;99.90;;;13.60;100.00;100888.81;5185978;28;20057;-73
2022/10/23 01:35:28;;;;;;;1.67;1.13;;;13.50;99.90;;;13.60;100.00;100887.94;5187651;28;20042;-72
2022/10/23 01:38:12;;;;;;;2.30;1.35;;;13.40;99.90;;;13.56;100.00;100895.72;5202419;28;20076;-72
2022/10/23 01:40:49;;;;;;;1.85;1.20;;;13.50;99.90;;;13.55;100.00;100890.44;5185820;28;20140;-72
2022/10/23 01:43:29;;;;;;;2.75;1.55;;;13.50;99.90;;;13.57;100.00;100887.03;5185960;28;20418;-73
2022/10/23 01:46:05;;;;;;;2.53;1.30;;;13.40;99.90;;;13.56;100.00;100887.88;5202488;28;20049;-72
2022/10/23 01:48:46;;;;;;;1.98;1.20;;;13.40;99.90;;;13.56;100.00;100879.09;5185965;28;20042;-72
2022/10/23 01:51:21;;;;;;;2.95;1.17;;;13.40;99.90;;;13.57;100.00;100875.66;5185469;28;20056;-73
2022/10/23 01:53:56;;;;;;;;;;;13.40;99.90;;;13.58;100.00;100878.31;5187346;28;20129;-73
2022/10/23 01:56:32;;;;;;;3.45;1.40;;;13.50;99.90;;;13.60;100.00;100875.72;5185748;28;20356;-72
2022/10/23 01:59:11;;;;;;;6.97;2.42;;;13.50;99.90;;;13.61;100.00;100860.88;5185857;28;20412;-73
2022/10/23 02:01:48;;;;;;;4.65;1.88;;;13.50;99.90;;;13.63;100.00;100859.16;5185201;28;20136;-73
2022/10/23 02:04:26;;;;;;;3.28;1.52;;;13.60;99.90;;;13.65;100.00;100852.25;5185344;28;20073;-73
2022/10/23 02:06:59;;;;;;;4.25;1.50;;;13.60;99.90;;;13.67;100.00;100851.44;5185581;28;20042;-72
2022/10/23 02:09:32;;;;;;;4.95;1.80;;;13.60;99.90;;;13.71;100.00;100837.56;5185603;28;20489;-73
2022/10/23 02:12:10;;;;;;;4.85;1.50;;;13.60;99.90;;;13.74;100.00;100837.63;5185043;28;20446;-72
2022/10/23 02:14:53;;;;;;;5.10;1.90;;;13.70;99.90;;;13.75;100.00;100831.53;5185284;28;20052;-73
2022/10/23 02:17:33;;;;;;;5.93;1.70;;;13.70;99.90;;;13.77;100.00;100827.22;5185657;28;20041;-72
2022/10/23 02:20:17;;;;;;;5.20;2.20;;;13.70;99.90;;;13.80;100.00;100822.03;5201374;28;20042;-72
2022/10/23 02:23:00;;;;;;;4.93;2.10;;;13.80;99.90;;;13.84;100.00;100829.13;5185362;28;20054;-73
2022/10/23 02:25:36;;;;;;;3.20;1.85;;;13.80;99.90;;;13.84;100.00;100829.13;5185248;28;20053;-72
2022/10/23 02:28:13;;;;;;;3.78;1.70;;;13.80;99.90;;;13.85;100.00;100825.66;5186626;28;20048;-72
2022/10/23 02:30:51;;;;;;;3.40;1.60;;;13.80;99.90;;;13.87;100.00;100822.19;5183943;28;20060;-73
2022/10/23 02:33:26;;;;;;;2.30;1.50;;;13.80;99.90;;;13.86;100.00;100813.44;5184982;28;20541;-72
2022/10/23 02:35:58;;;;;;;3.95;1.30;;;13.80;99.90;;;13.90;100.00;100814.41;5186338;28;20037;-72
2022/10/23 02:38:35;;;;;;;5.03;1.60;;;13.80;99.90;;;13.90;100.00;100814.41;5185139;28;20572;-72
2022/10/23 02:41:28;;;;;;;3.05;1.30;;;13.80;99.90;;;13.93;100.00;100812.72;5184637;28;20057;-72
2022/10/23 02:44:20;;;;;;;4.78;1.60;;;13.90;99.90;;;13.95;100.00;100807.50;5186398;28;20061;-72
2022/10/23 02:47:10;;;;;;;3.47;1.48;;;13.90;99.90;;;13.98;100.00;100810.19;5184793;28;20056;-72
2022/10/23 02:49:51;;;;;;;3.75;1.73;;;13.80;99.90;;;14.00;100.00;100800.63;5185824;28;20050;-72
2022/10/23 02:52:32;;;;;;;3.35;1.50;;;13.90;99.90;;;14.02;100.00;100796.31;5184704;28;20050;-73
2022/10/23 02:55:34;;;;;;;2.50;1.40;;;13.90;99.90;;;14.03;100.00;100793.72;5184726;28;20506;-73
2022/10/23 02:58:15;;;;;;;3.42;1.25;;;14.00;99.90;;;14.07;100.00;100779.81;5183438;28;20092;-73
2022/10/23 03:00:53;;;;;;;3.22;1.40;;;14.00;99.90;;;14.09;100.00;100787.72;5184270;28;20050;-72
2022/10/23 03:03:32;;;;;;;5.10;1.80;;;14.00;99.90;;;14.09;100.00;100798.22;5201064;28;20181;-73
2022/10/23 03:06:05;;;;;;;2.95;1.50;;;14.00;99.90;;;14.14;100.00;100796.53;5184439;28;20052;-73
2022/10/23 03:08:48;;;;;;;2.90;1.40;;;14.10;99.90;;;14.14;100.00;100775.56;5269155;22;20045;-73
2022/10/23 03:11:20;;;;;;;2.90;1.50;;;14.00;99.90;;;14.13;100.00;100760.69;5233720;28;20041;-73
2022/10/23 03:13:54;;;;;;;3.17;1.30;;;14.10;99.90;;;14.11;100.00;100767.66;5205729;28;20049;-73
2022/10/23 03:16:26;;;;;;;4.53;1.75;;;14.10;99.90;;;14.11;100.00;100754.56;5206035;28;20045;-73
2022/10/23 03:19:01;;;;;;;4.65;1.60;;;14.10;99.90;;;14.10;100.00;100752.78;5187948;28;20045;-73
2022/10/23 03:21:34;;;;;;;3.65;1.38;;;14.10;99.90;;;14.10;100.00;100747.56;5204202;28;20107;-73
2022/10/23 03:24:08;;;;;;;3.85;1.63;;;14.00;99.90;;;14.07;100.00;100743.13;5199142;28;20049;-72
2022/10/23 03:26:46;;;;;;;2.78;1.38;;;14.00;99.90;;;14.07;100.00;100742.22;5204035;28;20046;-73
2022/10/23 03:29:18;;;;;;;3.22;1.35;;;14.00;99.90;;;14.06;100.00;100730.88;5204592;28;20044;-72
2022/10/23 03:31:51;;;;;;;3.10;1.88;;;14.00;99.90;;;14.05;100.00;100730.84;5204122;28;20042;-72
2022/10/23 03:34:25;;;;;;;4.75;1.45;;;14.00;99.90;;;14.03;100.00;100722.97;5205533;28;20128;-72
2022/10/23 03:36:58;;;;;;;;;;;14.00;99.90;;;14.03;100.00;100724.69;5221251;28;20041;-72
2022/10/23 03:39:31;;;;;;;1.70;1.40;;;14.00;99.90;;;14.02;100.00;100728.19;5204196;28;19924;-72
2022/10/23 03:42:03;;;;;;;3.28;1.52;;;14.00;99.90;;;14.05;100.00;100728.22;5203264;28;20060;-73
2022/10/23 03:44:35;;;;;;;5.47;1.63;;;14.00;99.90;;;14.06;100.00;100735.22;5204360;28;20147;-73
2022/10/23 03:47:10;;;;;;;2.70;1.13;;;14.00;99.90;;;14.08;100.00;100744.91;5203882;28;20552;-73
2022/10/23 03:49:44;;;;;;;3.38;1.38;;;14.00;99.90;;;14.09;100.00;100746.66;5204744;28;20049;-73
2022/10/23 03:52:16;;;;;;;2.00;1.17;;;14.00;99.90;;;14.12;100.00;100751.97;5200648;28;20048;-72
2022/10/23 03:54:48;;;;;;;4.97;1.75;;;14.00;99.90;;;14.12;100.00;100751.97;5207480;28;20412;-72
2022/10/23 03:57:23;;;;;;;3.70;1.48;;;14.10;99.90;;;14.13;100.00;100755.47;5207914;28;20513;-73
2022/10/23 03:59:55;;;;;;;1.92;1.10;;;14.10;99.90;;;14.14;100.00;100749.34;5207456;28;20048;-73
2022/10/23 04:02:27;;;;;;;3.50;1.23;;;14.10;99.90;;;14.14;100.00;100746.75;5223959;28;20055;-73
2022/10/23 04:05:01;;;;;;;5.40;1.75;;;14.10;99.90;;;14.11;100.00;100749.31;5207256;28;20056;-73
2022/10/23 04:07:35;;;;;;;3.47;1.30;;;14.00;99.90;;;14.11;100.00;100749.31;5224059;28;20045;-73
2022/10/23 04:10:09;;;;;;;3.42;1.45;;;14.00;99.90;;;14.09;100.00;100741.44;5225059;28;20065;-73
2022/10/23 04:12:41;;;;;;;3.42;1.60;;;14.00;99.90;;;14.10;100.00;100737.06;5225148;28;20052;-73
2022/10/23 04:15:14;;;;;;;1.52;1.10;;;14.00;99.90;;;14.08;100.00;100738.75;5207103;28;20045;-73
2022/10/23 04:17:50;;;;;;;3.80;1.80;;;14.00;99.90;;;14.07;100.00;100737.88;5207190;28;20049;-71
2022/10/23 04:20:23;;;;;;;2.30;1.50;;;14.00;99.90;;;14.06;100.00;100743.97;5207323;28;20052;-73
2022/10/23 04:22:57;;;;;;;4.55;1.55;;;14.00;99.90;;;14.03;100.00;100735.19;5206958;28;20494;-73
2022/10/23 04:25:29;;;;;;;3.70;1.13;;;14.00;99.90;;;14.02;100.00;100742.16;5207181;28;20128;-72
2022/10/23 04:28:02;;;;;;;3.17;1.42;;;14.00;99.90;;;14.02;100.00;100734.31;5207290;28;20526;-73
2022/10/23 04:30:38;;;;;;;4.03;1.55;;;14.00;99.90;;;14.03;100.00;100743.03;5207129;28;20033;-73
2022/10/23 04:33:11;;;;;;;4.00;1.20;;;14.00;99.90;;;14.04;100.00;100744.81;5223347;28;20135;-73
2022/10/23 04:35:44;;;;;;;1.40;1.30;;;14.00;99.90;;;14.06;100.00;100737.84;5207158;28;20130;-73
2022/10/23 04:38:17;;;;;;;3.75;1.30;;;14.00;99.90;;;14.06;100.00;100735.22;5223513;28;20045;-73
2022/10/23 04:40:50;;;;;;;1.83;1.08;;;14.00;99.90;;;14.06;100.00;100745.72;5223077;28;20135;-72
2022/10/23 04:43:26;;;;;;;2.00;1.20;;;14.00;99.90;;;14.07;100.00;100737.00;5206959;28;20045;-72
2022/10/23 04:46:00;;;;;;;1.70;1.20;;;14.00;99.90;;;14.05;100.00;100741.31;5206646;28;20049;-73
2022/10/23 04:48:32;;;;;;;1.98;1.23;;;14.00;99.90;;;14.02;100.00;100722.94;5223204;28;20055;-73
2022/10/23 04:51:35;;;;;;;2.75;1.23;;;13.90;99.90;;;13.97;100.00;100714.09;5152724;28;20057;-73
2022/10/23 04:54:40;;;;;;;3.63;1.52;;;13.90;99.90;;;13.91;100.00;100713.97;5224143;28;20071;-73
2022/10/23 04:57:30;;;;;;;4.53;1.58;;;13.90;99.90;;;13.88;100.00;100706.03;5225103;28;20092;-73
2022/10/23 05:00:13;;;;;;;3.20;1.55;;;13.80;99.90;;;13.84;100.00;100708.59;5206942;28;20462;-74
2022/10/23 05:02:54;;;;;;;2.30;1.30;;;13.80;99.90;;;13.85;100.00;100702.50;5206572;28;20052;-73
2022/10/23 05:05:27;;;;;;;3.80;1.48;;;13.80;99.90;;;13.85;100.00;100702.50;5206727;28;20053;-74
2022/10/23 05:08:07;;;;;;;2.58;1.20;;;13.80;99.90;;;13.87;100.00;100699.91;5199832;28;20505;-73
2022/10/23 05:10:51;;;;;;;3.55;1.50;;;13.80;99.90;;;13.87;100.00;100701.66;5207799;28;20037;-74
2022/10/23 05:13:23;;;;;;;3.28;1.40;;;13.80;99.90;;;13.87;100.00;100704.25;5193893;28;20134;-73
2022/10/23 05:15:58;;;;;;;2.35;1.30;;;13.80;99.90;;;13.89;100.00;100697.31;5202472;28;20071;-73
2022/10/23 05:18:36;;;;;;;4.93;1.25;;;13.80;99.90;;;13.90;100.00;100702.59;5202205;28;20144;-74
2022/10/23 05:21:16;;;;;;;3.65;1.55;;;13.80;99.90;;;13.92;100.00;100692.16;5202251;28;20144;-73
2022/10/23 05:23:50;;;;;;;;;;;13.90;99.90;;;13.92;100.00;100685.16;5219374;28;20072;-74
2022/10/23 05:26:23;;;;;;;1.80;1.25;;;13.90;99.90;;;13.91;100.00;100682.53;5202474;28;19920;-74
2022/10/23 05:28:59;;;;;;;3.63;1.23;;;13.90;99.90;;;13.92;100.00;100676.44;5202204;28;20502;-75
2022/10/23 05:31:33;;;;;;;3.00;1.30;;;13.90;99.90;;;13.91;100.00;100674.66;5201940;28;20076;-74
2022/10/23 05:34:13;;;;;;;4.47;1.50;;;13.90;99.90;;;13.89;100.00;100681.59;5202407;28;20045;-76
2022/10/23 05:36:49;;;;;;;2.88;1.40;;;13.90;99.90;;;13.89;100.00;100681.59;5218889;28;20056;-74
2022/10/23 05:39:24;;;;;;;2.65;1.30;;;13.90;99.90;;;13.91;100.00;100672.03;5202682;28;20502;-75
2022/10/23 05:41:58;;;;;;;4.20;1.30;;;13.90;99.90;;;13.90;100.00;100670.28;5201827;28;20565;-75
2022/10/23 05:44:30;;;;;;;3.50;1.20;;;13.90;99.90;;;13.89;100.00;100665.88;5207250;28;20127;-75
2022/10/23 05:47:13;;;;;;;3.83;1.20;;;13.90;99.90;;;13.89;100.00;100663.25;5202218;28;20041;-75
2022/10/23 05:50:00;;;;;;;3.17;1.25;;;13.90;99.90;;;13.90;100.00;100662.41;5203217;28;20053;-75
2022/10/23 05:52:50;;;;;;;4.25;1.60;;;13.80;99.90;;;13.89;100.00;100658.00;5202078;28;20140;-75
2022/10/23 05:55:38;;;;;;;3.58;1.50;;;13.90;99.90;;;13.88;100.00;100651.00;5185985;28;20094;-72
2022/10/23 05:58:34;;;;;;;3.63;1.92;;;13.90;99.90;;;13.89;100.00;100653.69;5192721;28;20053;-73
2022/10/23 06:01:14;;;;;;;3.67;1.60;;;13.90;99.90;;;13.88;100.00;100641.41;5201623;28;20049;-74
2022/10/23 06:04:18;;;;;;;7.10;2.15;;;13.80;99.90;;;13.84;100.00;100632.63;5189114;28;20125;-59
2022/10/23 06:07:11;;;;;;;10.30;4.00;;;13.90;99.90;;;13.85;100.00;100631.75;5192667;28;20083;-59
2022/10/23 06:09:43;;;;;;;3.92;2.13;;;13.90;99.90;;;13.87;100.00;100629.16;5205506;28;20049;-60
2022/10/23 06:12:16;;;;;;;6.00;1.90;;;13.80;99.90;;;13.88;100.00;100630.03;5206164;28;20073;-59
2022/10/23 06:14:52;;;;;;;8.15;2.17;;;13.90;99.90;;;13.89;100.00;100629.19;5205078;28;20053;-60
2022/10/23 06:17:25;;;;;;;3.33;1.58;;;13.80;99.90;;;13.89;100.00;100630.09;5206982;28;20057;-59
2022/10/23 06:20:01;;;;;;;4.43;2.15;;;13.80;99.90;;;13.92;100.00;100626.63;5205421;28;20045;-58
2022/10/23 06:22:33;;;;;;;;;;;13.90;99.90;;;13.94;100.00;100632.78;5207319;28;20084;-59
2022/10/23 06:25:18;;;;;;;2.80;1.77;;;13.90;99.90;;;13.95;100.00;100632.81;5205314;28;20015;-59
2022/10/23 06:27:52;;;;;;;4.97;1.90;;;13.90;99.90;;;13.99;100.00;100634.63;5188477;28;20042;-59
2022/10/23 06:30:25;;;;;;;2.92;1.92;;;13.90;99.90;;;14.01;100.00;100629.41;5207215;28;20762;-59
2022/10/23 06:32:57;;;;;;;4.78;1.80;;;13.90;99.90;;;14.05;100.00;100626.88;5207216;28;20522;-59
2022/10/23 06:35:29;;;;;;;5.07;2.03;;;14.00;99.90;;;14.11;100.00;100639.22;5205376;28;20053;-59
2022/10/23 06:38:01;;;;;;;3.40;1.67;;;14.00;99.90;;;14.15;100.00;100630.56;5206020;28;20354;-59
2022/10/23 06:40:44;;;;;;;9.07;3.72;;;14.10;99.90;;;14.23;100.00;100628.97;5206900;28;20585;-59
2022/10/23 06:43:21;;;;;;;5.55;2.20;;;14.10;99.90;;;14.29;100.00;100623.81;5209368;28;20049;-59
2022/10/23 06:46:13;;;;;;;4.15;1.92;;;14.20;99.90;;;14.38;100.00;100620.47;5226559;28;20061;-58
2022/10/23 06:49:04;;;;;;;4.82;1.40;;;14.30;99.90;;;14.45;100.00;100608.31;5227698;28;20055;-60
2022/10/23 06:51:41;;;;;;;5.30;1.40;;;14.40;99.90;;;14.50;100.00;100606.72;5208626;28;20132;-57
2022/10/23 06:54:17;;;;;;;3.92;1.52;;;14.40;99.90;;;14.50;100.00;100615.44;5205039;28;20497;-59
2022/10/23 06:56:56;;;;;;;6.38;1.60;;;14.50;99.90;;;14.50;100.00;100612.81;5207504;28;20053;-58
2022/10/23 06:59:38;;;;;;;3.72;1.60;;;14.50;99.90;;;14.56;100.00;100614.66;5205133;28;20228;-59
2022/10/23 07:02:13;;;;;;;4.55;1.60;;;14.50;99.90;;;14.58;100.00;100610.31;5202873;28;20145;-59
2022/10/23 07:04:45;;;;;;;3.22;1.38;;;14.50;99.90;;;14.59;100.00;100630.44;5208773;28;20045;-58
2022/10/23 07:07:22;;;;;;;4.15;1.40;;;14.50;99.90;;;14.61;100.00;100620.88;5225569;28;20044;-59
2022/10/23 07:09:54;;;;;;;4.97;1.92;;;14.60;99.90;;;14.63;100.00;100619.16;5209062;28;20068;-58
2022/10/23 07:12:30;;;;;;;3.67;1.65;;;14.60;99.90;;;14.66;100.00;100611.31;5206948;28;20140;-58
2022/10/23 07:15:27;;;;;;;4.22;2.00;;;14.60;99.90;;;14.68;100.00;100617.50;5195067;28;20140;-57
2022/10/23 07:17:59;;;;;;;4.53;1.90;;;14.60;99.90;;;14.72;100.00;100624.53;5205108;28;20045;-58
2022/10/23 07:20:36;;;;;;;5.35;1.38;;;14.70;99.90;;;14.71;100.00;100617.53;5204644;28;20041;-58
2022/10/23 07:23:09;;;;;;;2.78;1.45;;;14.70;99.90;;;14.73;100.00;100626.28;5204247;28;20056;-58
2022/10/23 07:25:44;;;;;;;6.15;1.50;;;14.70;99.90;;;14.79;100.00;100621.13;5204480;28;20077;-57
2022/10/23 07:28:16;;;;;;;3.83;2.00;;;14.70;99.90;;;14.80;100.00;100622.94;5204587;28;20425;-57
2022/10/23 07:30:57;;;;;;;7.45;1.58;;;14.70;99.90;;;14.85;100.00;100625.59;5204474;28;20062;-58
2022/10/23 07:33:31;;;;;;;7.25;1.75;;;14.80;99.90;;;14.90;100.00;100613.44;5205755;28;20045;-57
2022/10/23 07:36:10;;;;;;;4.28;1.30;;;14.80;99.90;;;14.97;100.00;100611.78;5221131;28;20125;-57
2022/10/23 07:38:42;;;;;;;6.45;2.17;;;14.90;99.90;;;15.03;100.00;100611.88;5204438;28;20046;-58
2022/10/23 07:41:15;;;;;;;4.90;1.80;;;14.90;99.90;;;15.11;100.00;100621.59;5202890;28;20076;-58
2022/10/23 07:43:48;;;;;;;2.70;1.38;;;15.00;99.90;;;15.17;100.00;100618.19;5207620;28;20053;-58
2022/10/23 07:46:22;;;;;;;3.35;1.60;;;15.00;99.90;;;15.17;100.00;100620.81;5225948;28;20049;-58
2022/10/23 07:48:55;;;;;;;4.00;1.40;;;15.10;99.90;;;15.22;100.00;100605.13;5205870;28;20472;-58
2022/10/23 07:51:28;;;;;;;3.40;1.60;;;15.10;99.90;;;15.29;100.00;100607.84;5205536;28;20049;-58
2022/10/23 07:54:04;;;;;;;1.92;1.40;;;15.20;99.90;;;15.39;100.00;100599.22;5204435;28;20050;-58
2022/10/23 07:56:57;;;;;;;4.32;1.45;;;15.20;99.90;;;15.43;100.00;100601.00;5205323;28;20046;-58
2022/10/23 07:59:38;;;;;;;4.50;1.80;;;15.30;99.90;;;15.41;100.00;100608.00;5205766;28;20103;-57
2022/10/23 08:02:16;;;;;;;5.05;2.00;;;15.30;99.90;;;15.46;100.00;100608.94;5220640;28;20049;-58
2022/10/23 08:04:50;;;;;;;4.32;1.77;;;15.30;99.90;;;15.62;100.00;100617.03;5204048;28;20038;-57
2022/10/23 08:07:31;;;;;;;5.60;1.92;;;15.40;99.90;;;15.83;100.00;100612.00;5203817;28;20409;-58
2022/10/23 08:10:04;;;;;;;2.20;1.40;;;15.50;99.90;;;16.05;100.00;100599.09;5205192;28;20045;-59
2022/10/23 08:12:37;;;;;;;4.20;1.70;;;15.70;99.90;;;16.20;100.00;100586.94;5203134;28;20037;-59
2022/10/23 08:15:10;;;;;;;6.47;1.50;;;15.90;99.90;;;16.56;100.00;100603.88;5224140;28;20070;-59
2022/10/23 08:17:57;;;;;;;6.75;2.17;;;16.20;99.90;;;16.64;100.00;100588.16;5223761;28;20041;-57
2022/10/23 08:20:45;;;;;;;3.58;1.30;;;16.30;99.90;;;16.72;100.00;100591.75;5207136;28;20463;-57
2022/10/23 08:23:18;;;;;;;;;;;16.40;99.90;;;16.81;100.00;100594.44;5223993;28;20041;-58
2022/10/23 08:25:57;;;;;;;3.28;1.60;;;16.50;99.90;;;16.89;100.00;100599.72;5218995;28;20669;-60
2022/10/23 08:28:29;;;;;;;3.25;1.73;;;16.60;99.90;;;16.94;100.00;100588.38;5186459;28;20457;-59
2022/10/23 08:31:09;;;;;;;3.95;1.50;;;16.60;99.90;;;17.02;100.00;100591.94;5187181;28;20049;-57
2022/10/23 08:33:43;;;;;;;3.08;1.50;;;16.80;99.90;;;17.17;100.00;100582.34;5187165;28;20128;-59
2022/10/23 08:36:19;;;;;;;4.32;1.13;;;16.80;99.90;;;17.19;100.00;100589.38;5186680;28;20045;-60
2022/10/23 08:38:53;;;;;;;3.95;1.20;;;16.90;99.90;;;17.13;100.00;100584.06;5204417;28;20045;-58
2022/10/23 08:41:28;;;;;;;;;;;16.90;99.90;;;17.07;100.00;100581.41;5187257;28;20410;-59
2022/10/23 08:44:18;;;;;;;4.30;1.23;;;16.80;99.90;;;17.03;100.00;100577.91;5187224;28;20357;-59
2022/10/23 08:46:59;;;;;;;3.70;1.27;;;16.80;99.90;;;16.95;100.00;100574.34;5186237;28;20176;-59
2022/10/23 08:49:57;;;;;;;2.30;1.20;;;16.80;99.90;;;16.93;100.00;100573.44;5204386;28;20056;-57
2022/10/23 08:52:36;;;;;;;2.85;1.30;;;16.70;99.90;;;16.92;100.00;100573.44;5166592;28;20056;-58
2022/10/23 08:55:18;;;;;;;3.38;1.40;;;16.70;99.90;;;17.03;100.00;100562.09;5188168;28;20056;-57
2022/10/23 08:57:59;;;;;;;3.90;1.58;;;16.80;99.90;;;17.38;100.00;100558.72;5202256;28;20049;-57
2022/10/23 09:00:31;;;;;;;3.95;1.58;;;17.00;99.90;;;17.76;100.00;100556.22;5203632;28;20502;-58
2022/10/23 09:03:05;;;;;;;5.05;1.30;;;17.30;99.90;;;17.99;100.00;100543.03;5204374;28;20059;-59
2022/10/23 09:05:57;;;;;;;3.03;1.10;;;17.60;99.90;;;18.36;100.00;100532.50;5204263;28;20494;-57
2022/10/23 09:08:48;;;;;;;4.43;1.20;;;17.90;99.90;;;18.65;100.00;100533.34;5257152;23;20049;-82
2022/10/23 09:11:27;;;;;;;3.22;1.30;;;18.10;99.90;;;18.47;100.00;100529.84;5242475;28;20075;-82
2022/10/23 09:14:37;;;;;;;2.53;1.10;;;18.10;99.90;;;18.36;100.00;100532.50;5251590;28;20040;-83
2022/10/23 09:17:20;;;;;;;1.80;1.10;;;18.10;99.90;;;18.24;100.00;100514.91;5247038;28;20029;-83
2022/10/23 09:20:00;;;;;;;1.70;1.30;;;18.00;99.90;;;18.17;100.00;100515.78;5211592;28;20671;-83
2022/10/23 09:22:33;;;;;;;3.78;1.25;;;17.90;99.90;;;18.06;100.00;100523.72;5209477;28;20494;-84
2022/10/23 09:25:10;;;;;;;2.65;1.40;;;17.80;99.90;;;18.06;100.00;100521.09;5228551;28;20052;-83
2022/10/23 09:27:47;;;;;;;4.18;1.40;;;17.80;99.90;;;18.10;100.00;100514.91;5220050;28;20068;-82
2022/10/23 09:30:33;;;;;;;2.78;1.25;;;17.90;99.90;;;18.31;100.00;100510.50;5226424;28;20049;-86
2022/10/23 09:33:15;;;;;;;1.90;1.50;;;18.00;99.90;;;18.62;100.00;100514.84;5208106;28;20050;-83
2022/10/23 09:35:57;;;;;;;3.58;1.10;;;18.20;99.90;;;18.84;100.00;100504.25;5192859;28;20056;-84
2022/10/23 09:38:34;;;;;;;11.23;1.40;;;18.40;99.90;;;18.95;100.00;100505.97;5221224;28;20052;-81
2022/10/23 09:41:13;;;;;;;2.92;1.40;;;18.50;99.90;;;19.23;100.00;100513.75;5219437;28;20427;-80
2022/10/23 09:43:46;;;;;;;2.88;1.17;;;18.80;99.90;;;19.55;100.00;100526.81;5217316;28;20115;-81
2022/10/23 09:46:18;;;;;;;3.40;1.05;;;19.10;99.90;;;19.82;100.00;100531.06;5215825;28;20073;-86
2022/10/23 09:48:58;;;;;;;2.67;1.20;;;19.30;99.90;;;19.95;100.00;100521.25;5216606;28;20061;-83
2022/10/23 09:51:30;;;;;;;6.13;1.25;;;19.50;99.90;;;20.00;100.00;100525.63;5224845;28;20536;-82
2022/10/23 09:54:18;;;;;;;1.63;1.02;;;19.60;99.90;;;19.99;100.00;100518.59;5223895;28;20044;-86
2022/10/23 09:56:51;;;;;;;2.35;1.10;;;19.60;99.90;;;19.96;100.00;100508.06;5228430;28;20045;-86
2022/10/23 09:59:27;;;;;;;3.70;1.70;;;19.60;99.90;;;19.93;100.00;100502.75;5230314;28;20457;-82
2022/10/23 10:02:03;;;;;;;2.53;1.13;;;19.60;99.90;;;19.92;100.00;100510.72;5230955;28;20049;-82
2022/10/23 10:04:42;;;;;;;2.92;1.25;;;19.50;99.90;;;19.90;100.00;100510.75;5231929;28;20053;-83
2022/10/23 10:07:21;;;;;;;2.38;1.23;;;19.50;99.90;;;19.90;100.00;100513.38;5234138;28;20037;-81
2022/10/23 10:09:56;;;;;;;3.05;1.20;;;19.50;99.90;;;19.73;100.00;100505.56;5221257;28;20045;-81
2022/10/23 10:12:43;;;;;;;1.63;1.02;;;19.40;99.90;;;19.64;100.00;100513.56;5204147;28;20056;-83
2022/10/23 10:15:27;;;;;;;2.85;1.33;;;19.30;99.90;;;19.57;100.00;100517.13;5214826;28;20045;-81
2022/10/23 10:18:13;;;;;;;2.22;1.10;;;19.20;99.90;;;19.45;100.00;100517.19;5233806;28;20074;-83
2022/10/23 10:21:09;;;;;;;2.33;1.10;;;19.10;99.90;;;19.32;100.00;100507.56;5236954;28;20124;-82
2022/10/23 10:23:49;;;;;;;2.25;1.13;;;19.00;99.90;;;19.20;100.00;100513.78;5233371;28;20041;-82
2022/10/23 10:26:35;;;;;;;3.47;1.17;;;18.90;99.90;;;19.10;100.00;100499.72;5236268;28;20045;-83
2022/10/23 10:29:22;;;;;;;3.05;0.95;;;18.80;99.90;;;18.93;100.00;100498.94;5230344;28;20040;-82
2022/10/23 10:32:06;;;;;;;2.28;1.10;;;18.70;99.90;;;18.85;100.00;100484.91;5227551;28;20081;-81
2022/10/23 10:34:49;;;;;;;2.85;1.40;;;18.60;99.90;;;18.74;100.00;100481.41;5227281;28;20476;-82
2022/10/23 10:37:29;;;;;;;2.38;1.10;;;18.50;99.90;;;18.69;100.00;100461.19;5223491;28;20045;-82
2022/10/23 10:40:18;;;;;;;2.60;1.70;;;18.50;99.90;;;18.61;100.00;100452.38;5210834;28;20399;-81
2022/10/23 10:43:14;;;;;;;3.17;1.20;;;18.40;99.90;;;18.55;100.00;100438.31;5207428;28;20041;-82
2022/10/23 10:45:48;;;;;;;6.03;1.40;;;18.30;99.90;;;18.52;100.00;100441.88;5222374;28;20037;-83
2022/10/23 10:48:41;;;;;;;2.90;1.25;;;18.30;99.90;;;18.44;100.00;100430.44;5231441;28;20044;-82
2022/10/23 10:51:43;;;;;;;3.88;1.30;;;18.30;99.90;;;18.36;100.00;100426.94;5178949;28;20049;-80
2022/10/23 10:54:29;;;;;;;1.42;1.00;;;18.20;99.90;;;18.28;100.00;100426.09;5228846;28;20091;-81